sensor_id;sensor_type;location;lat;lon;timestamp;pressure;altitude;pressure_sealevel;temperature;humidity
12759;BME280;20944;47.048;15.390;2023-01-29T00:02:27;98266.94;;;0.14;100.00
12759;BME280;20944;47.048;15.390;2023-01-29T00:04:55;98300.91;;;0.34;100.00
12759;BME280;20944;47.048;15.390;2023-01-29T00:07:43;98321.72;;;0.43;100.00
12759;BME280;20944;47.048;15.390;2023-01-29T00:10:12;98320.22;;;0.51;100.00
12759;BME280;20944;47.048;15.390;2023-01-29T00:12:40;98316.66;;;0.46;100.00
12759;BME280;20944;47.048;15.390;2023-01-29T00:15:09;98155.47;;;-0.53;100.00
12759;BME280;20944;47.048;15.390;2023-01-29T00:17:37;98281.63;;;0.18;100.00
12759;BME280;20944;47.048;15.390;2023-01-29T00:20:06;98303.44;;;0.32;100.00
12759;BME280;20944;47.048;15.390;2023-01-29T00:22:34;98327.84;;;0.46;100.00
12759;BME280;20944;47.048;15.390;2023-01-29T00:25:04;98314.69;;;0.36;100.00
12759;BME280;20944;47.048;15.390;2023-01-29T00:27:33;98344.72;;;0.34;100.00
12759;BME280;20944;47.048;15.390;2023-01-29T00:30:01;98320.28;;;0.54;100.00
12759;BME280;20944;47.048;15.390;2023-01-29T00:32:38;98313.25;;;0.48;100.00
12759;BME280;20944;47.048;15.390;2023-01-29T00:35:07;98321.88;;;0.49;100.00
12759;BME280;20944;47.048;15.390;2023-01-29T00:37:35;98278.03;;;0.11;100.00
12759;BME280;20944;47.048;15.390;2023-01-29T00:40:07;98330.41;;;0.46;100.00
12759;BME280;20944;47.048;15.390;2023-01-29T00:42:35;98329.53;;;0.46;100.00
12759;BME280;20944;47.048;15.390;2023-01-29T00:45:35;98314.69;;;0.36;100.00
12759;BME280;20944;47.048;15.390;2023-01-29T00:48:04;98334.69;;;0.46;100.00
12759;BME280;20944;47.048;15.390;2023-01-29T00:50:33;98340.00;;;0.52;100.00
12759;BME280;20944;47.048;15.390;2023-01-29T00:53:01;98341.75;;;0.54;100.00
12759;BME280;20944;47.048;15.390;2023-01-29T00:55:30;98337.44;;;0.53;100.00
12759;BME280;20944;47.048;15.390;2023-01-29T00:57:59;98312.22;;;0.40;100.00
12759;BME280;20944;47.048;15.390;2023-01-29T01:00:27;98324.38;;;0.46;100.00
12759;BME280;20944;47.048;15.390;2023-01-29T01:02:55;98329.84;;;0.60;100.00
12759;BME280;20944;47.048;15.390;2023-01-29T01:05:32;98337.59;;;0.60;100.00
12759;BME280;20944;47.048;15.390;2023-01-29T01:08:00;98336.75;;;0.61;100.00
12759;BME280;20944;47.048;15.390;2023-01-29T01:10:31;98327.13;;;0.53;100.00
12759;BME280;20944;47.048;15.390;2023-01-29T01:13:00;98307.81;;;0.36;100.00
12759;BME280;20944;47.048;15.390;2023-01-29T01:15:34;98336.59;;;0.54;100.00
12759;BME280;20944;47.048;15.390;2023-01-29T01:18:03;98190.41;;;-0.28;100.00
12759;BME280;20944;47.048;15.390;2023-01-29T01:20:33;98334.84;;;0.52;100.00
12759;BME280;20944;47.048;15.390;2023-01-29T01:23:02;98329.56;;;0.47;100.00
12759;BME280;20944;47.048;15.390;2023-01-29T01:25:32;98342.53;;;0.50;100.00
12759;BME280;20944;47.048;15.390;2023-01-29T01:28:00;98343.31;;;0.46;100.00
12759;BME280;20944;47.048;15.390;2023-01-29T01:30:29;98338.97;;;0.45;100.00
12759;BME280;20944;47.048;15.390;2023-01-29T01:32:58;98336.31;;;0.42;100.00
12759;BME280;20944;47.048;15.390;2023-01-29T01:35:27;98343.22;;;0.43;100.00
12759;BME280;20944;47.048;15.390;2023-01-29T01:37:55;98343.31;;;0.46;100.00
12759;BME280;20944;47.048;15.390;2023-01-29T01:40:24;98352.84;;;0.50;100.00
12759;BME280;20944;47.048;15.390;2023-01-29T01:42:56;98331.94;;;0.38;100.00
12759;BME280;20944;47.048;15.390;2023-01-29T01:45:27;98365.69;;;0.49;100.00
12759;BME280;20944;47.048;15.390;2023-01-29T01:48:00;98359.78;;;0.53;100.00
12759;BME280;20944;47.048;15.390;2023-01-29T01:50:34;98363.16;;;0.50;100.00
12759;BME280;20944;47.048;15.390;2023-01-29T01:53:06;98357.94;;;0.47;100.00
12759;BME280;20944;47.048;15.390;2023-01-29T01:55:49;98363.16;;;0.50;100.00
12759;BME280;20944;47.048;15.390;2023-01-29T01:58:24;98363.97;;;0.49;100.00
12759;BME280;20944;47.048;15.390;2023-01-29T02:00:53;98389.00;;;0.53;100.00
12759;BME280;20944;47.048;15.390;2023-01-29T02:03:23;98364.94;;;0.53;100.00
12759;BME280;20944;47.048;15.390;2023-01-29T02:06:10;98358.91;;;0.52;100.00
12759;BME280;20944;47.048;15.390;2023-01-29T02:08:59;98359.84;;;0.56;100.00
12759;BME280;20944;47.048;15.390;2023-01-29T02:11:46;98359.91;;;0.58;100.00
12759;BME280;20944;47.048;15.390;2023-01-29T02:14:15;98284.69;;;0.02;100.00
12759;BME280;20944;47.048;15.390;2023-01-29T02:16:44;98369.25;;;0.54;100.00
12759;BME280;20944;47.048;15.390;2023-01-29T02:19:17;98369.22;;;0.52;100.00
12759;BME280;20944;47.048;15.390;2023-01-29T02:22:10;98348.91;;;0.30;100.00
12759;BME280;20944;47.048;15.390;2023-01-29T02:25:00;98233.66;;;-0.48;100.00
12759;BME280;20944;47.048;15.390;2023-01-29T02:30:44;98366.38;;;0.42;100.00
12759;BME280;20944;47.048;15.390;2023-01-29T02:33:24;98386.31;;;0.49;100.00
12759;BME280;20944;47.048;15.390;2023-01-29T02:35:58;98366.06;;;0.28;100.00
12759;BME280;20944;47.048;15.390;2023-01-29T02:38:34;98380.97;;;0.41;100.00
12759;BME280;20944;47.048;15.390;2023-01-29T02:41:10;98388.69;;;0.40;100.00
12759;BME280;20944;47.048;15.390;2023-01-29T02:43:44;98386.41;;;0.52;100.00
12759;BME280;20944;47.048;15.390;2023-01-29T02:46:20;98388.09;;;0.51;100.00
12759;BME280;20944;47.048;15.390;2023-01-29T02:48:56;98380.31;;;0.50;100.00
12759;BME280;20944;47.048;15.390;2023-01-29T02:51:31;98393.19;;;0.48;100.00
12759;BME280;20944;47.048;15.390;2023-01-29T02:54:05;98398.22;;;0.44;100.00
12759;BME280;20944;47.048;15.390;2023-01-29T02:56:37;98277.06;;;-0.29;100.00
12759;BME280;20944;47.048;15.390;2023-01-29T02:59:10;98393.31;;;0.54;100.00
12759;BME280;20944;47.048;15.390;2023-01-29T03:01:47;98394.84;;;0.46;100.00
12759;BME280;20944;47.048;15.390;2023-01-29T03:04:21;98369.66;;;0.35;100.00
12759;BME280;20944;47.048;15.390;2023-01-29T03:06:54;98389.16;;;0.60;100.00
12759;BME280;20944;47.048;15.390;2023-01-29T03:09:29;98365.66;;;0.47;100.00
12759;BME280;20944;47.048;15.390;2023-01-29T03:12:04;98389.06;;;0.57;100.00
12759;BME280;20944;47.048;15.390;2023-01-29T03:14:50;98391.22;;;0.38;100.00
12759;BME280;20944;47.048;15.390;2023-01-29T03:17:40;98397.19;;;0.37;100.00
12759;BME280;20944;47.048;15.390;2023-01-29T03:20:15;98389.31;;;0.31;100.00
12759;BME280;20944;47.048;15.390;2023-01-29T03:22:49;98256.31;;;-0.35;100.00
12759;BME280;20944;47.048;15.390;2023-01-29T03:25:22;98388.50;;;0.32;100.00
12759;BME280;20944;47.048;15.390;2023-01-29T03:28:11;98300.97;;;-0.33;100.00
12759;BME280;20944;47.048;15.390;2023-01-29T03:31:03;98397.78;;;0.25;100.00
12759;BME280;20944;47.048;15.390;2023-01-29T03:33:56;98392.47;;;0.19;100.00
12759;BME280;20944;47.048;15.390;2023-01-29T03:36:29;98400.28;;;0.24;100.00
12759;BME280;20944;47.048;15.390;2023-01-29T03:39:04;98438.53;;;0.07;100.00
12759;BME280;20944;47.048;15.390;2023-01-29T03:41:36;98401.81;;;0.16;100.00
12759;BME280;20944;47.048;15.390;2023-01-29T03:44:13;98402.66;;;0.15;100.00
12759;BME280;20944;47.048;15.390;2023-01-29T03:46:49;98405.25;;;0.16;100.00
12759;BME280;20944;47.048;15.390;2023-01-29T03:49:29;98399.31;;;0.19;100.00
12759;BME280;20944;47.048;15.390;2023-01-29T03:52:02;98397.81;;;0.27;100.00
12759;BME280;20944;47.048;15.390;2023-01-29T03:54:39;98402.97;;;0.27;100.00
12759;BME280;20944;47.048;15.390;2023-01-29T03:57:14;98402.88;;;0.24;100.00
12759;BME280;20944;47.048;15.390;2023-01-29T03:59:49;98386.94;;;0.06;100.00
12759;BME280;20944;47.048;15.390;2023-01-29T04:02:23;98414.84;;;0.22;100.00
12759;BME280;20944;47.048;15.390;2023-01-29T04:04:58;98265.84;;;-0.64;100.00
12759;BME280;20944;47.048;15.390;2023-01-29T04:07:30;98331.19;;;-0.25;100.00
12759;BME280;20944;47.048;15.390;2023-01-29T04:10:04;98403.66;;;0.20;100.00
12759;BME280;20944;47.048;15.390;2023-01-29T04:12:37;98272.69;;;-0.64;100.00
12759;BME280;20944;47.048;15.390;2023-01-29T04:15:12;98398.44;;;0.18;100.00
12759;BME280;20944;47.048;15.390;2023-01-29T04:17:45;98324.63;;;-0.14;100.00
12759;BME280;20944;47.048;15.390;2023-01-29T04:20:17;98386.94;;;0.06;100.00
12759;BME280;20944;47.048;15.390;2023-01-29T04:22:46;98393.72;;;0.01;100.00
12759;BME280;20944;47.048;15.390;2023-01-29T04:25:17;98412.69;;;0.06;100.00
12759;BME280;20944;47.048;15.390;2023-01-29T04:27:59;98409.03;;;-0.04;100.00
12759;BME280;20944;47.048;15.390;2023-01-29T04:30:37;98409.22;;;0.04;100.00
12759;BME280;20944;47.048;15.390;2023-01-29T04:33:26;98417.00;;;0.05;100.00
12759;BME280;20944;47.048;15.390;2023-01-29T04:36:14;98405.91;;;0.08;100.00
12759;BME280;20944;47.048;15.390;2023-01-29T04:38:53;98379.00;;;-0.04;100.00
12759;BME280;20944;47.048;15.390;2023-01-29T04:41:29;98386.47;;;-0.13;100.00
12759;BME280;20944;47.048;15.390;2023-01-29T04:44:06;98413.63;;;0.08;100.00
12759;BME280;20944;47.048;15.390;2023-01-29T04:46:45;98414.66;;;0.14;100.00
12759;BME280;20944;47.048;15.390;2023-01-29T04:49:22;98394.28;;;-0.10;100.00
12759;BME280;20944;47.048;15.390;2023-01-29T04:52:01;98414.25;;;-0.01;100.00
12759;BME280;20944;47.048;15.390;2023-01-29T04:54:46;98414.22;;;-0.03;100.00
12759;BME280;20944;47.048;15.390;2023-01-29T04:57:21;98407.56;;;0.06;100.00
12759;BME280;20944;47.048;15.390;2023-01-29T04:59:56;98408.94;;;-0.07;100.00
12759;BME280;20944;47.048;15.390;2023-01-29T05:02:27;98414.31;;;0.01;100.00
12759;BME280;20944;47.048;15.390;2023-01-29T05:04:57;98401.88;;;-0.14;100.00
12759;BME280;20944;47.048;15.390;2023-01-29T05:07:29;98403.44;;;-0.19;100.00
12759;BME280;20944;47.048;15.390;2023-01-29T05:09:59;98324.25;;;-0.91;100.00
12759;BME280;20944;47.048;15.390;2023-01-29T05:12:29;98449.34;;;-0.36;100.00
12759;BME280;20944;47.048;15.390;2023-01-29T05:15:01;98385.97;;;-0.63;100.00
12759;BME280;20944;47.048;15.390;2023-01-29T05:17:31;98397.22;;;-0.59;100.00
12759;BME280;20944;47.048;15.390;2023-01-29T05:20:00;98281.50;;;-1.18;100.00
12759;BME280;20944;47.048;15.390;2023-01-29T05:22:30;98409.53;;;-0.49;100.00
12759;BME280;20944;47.048;15.390;2023-01-29T05:24:59;98345.91;;;-0.83;100.00
12759;BME280;20944;47.048;15.390;2023-01-29T05:27:31;98386.44;;;-0.46;100.00
12759;BME280;20944;47.048;15.390;2023-01-29T05:30:19;98426.00;;;-0.42;100.00
12759;BME280;20944;47.048;15.390;2023-01-29T05:32:49;98277.72;;;-1.30;100.00
12759;BME280;20944;47.048;15.390;2023-01-29T05:35:18;98411.25;;;-0.48;100.00
12759;BME280;20944;47.048;15.390;2023-01-29T05:37:48;98230.69;;;-1.56;100.00
12759;BME280;20944;47.048;15.390;2023-01-29T05:40:18;98416.88;;;-0.61;100.00
12759;BME280;20944;47.048;15.390;2023-01-29T05:42:47;98411.47;;;-0.70;100.00
12759;BME280;20944;47.048;15.390;2023-01-29T05:45:17;98409.94;;;-0.64;100.00
12759;BME280;20944;47.048;15.390;2023-01-29T05:47:46;98405.72;;;-0.62;100.00
12759;BME280;20944;47.048;15.390;2023-01-29T05:50:15;98431.09;;;-0.74;100.00
12759;BME280;20944;47.048;15.390;2023-01-29T05:52:44;98407.66;;;-0.83;100.00
12759;BME280;20944;47.048;15.390;2023-01-29T05:55:15;98414.88;;;-1.00;100.00
12759;BME280;20944;47.048;15.390;2023-01-29T05:57:43;98413.75;;;-1.08;100.00
12759;BME280;20944;47.048;15.390;2023-01-29T06:00:13;98365.47;;;-1.45;100.00
12759;BME280;20944;47.048;15.390;2023-01-29T06:02:42;98418.69;;;-1.16;100.00
12759;BME280;20944;47.048;15.390;2023-01-29T06:05:11;98378.28;;;-1.47;100.00
12759;BME280;20944;47.048;15.390;2023-01-29T06:07:39;98437.19;;;-1.26;100.00
12759;BME280;20944;47.048;15.390;2023-01-29T06:10:12;98342.84;;;-1.84;100.00
12759;BME280;20944;47.048;15.390;2023-01-29T06:12:43;98446.00;;;-1.19;100.00
12759;BME280;20944;47.048;15.390;2023-01-29T06:15:12;98435.72;;;-1.19;100.00
12759;BME280;20944;47.048;15.390;2023-01-29T06:17:41;98440.16;;;-1.14;100.00
12759;BME280;20944;47.048;15.390;2023-01-29T06:20:12;98435.00;;;-1.14;100.00
12759;BME280;20944;47.048;15.390;2023-01-29T06:22:41;98429.13;;;-1.11;100.00
12759;BME280;20944;47.048;15.390;2023-01-29T06:25:10;98447.44;;;-1.00;100.00
12759;BME280;20944;47.048;15.390;2023-01-29T06:27:38;98460.44;;;-0.96;100.00
12759;BME280;20944;47.048;15.390;2023-01-29T06:30:10;98445.00;;;-0.96;100.00
12759;BME280;20944;47.048;15.390;2023-01-29T06:32:38;98446.66;;;-0.98;100.00
12759;BME280;20944;47.048;15.390;2023-01-29T06:35:08;98441.28;;;-1.05;100.00
12759;BME280;20944;47.048;15.390;2023-01-29T06:37:37;98457.25;;;-1.16;100.00
12759;BME280;20944;47.048;15.390;2023-01-29T06:40:07;98412.88;;;-1.37;100.00
12759;BME280;20944;47.048;15.390;2023-01-29T06:42:36;98451.22;;;-1.16;100.00
12759;BME280;20944;47.048;15.390;2023-01-29T06:45:05;98452.94;;;-1.17;100.00
12759;BME280;20944;47.048;15.390;2023-01-29T06:47:36;98456.66;;;-1.07;100.00
12759;BME280;20944;47.048;15.390;2023-01-29T06:50:05;98464.44;;;-1.05;100.00
12759;BME280;20944;47.048;15.390;2023-01-29T06:52:34;98459.94;;;-1.13;100.00
12759;BME280;20944;47.048;15.390;2023-01-29T06:55:03;98463.22;;;-1.17;100.00
12759;BME280;20944;47.048;15.390;2023-01-29T06:57:32;98462.22;;;-1.20;100.00
12759;BME280;20944;47.048;15.390;2023-01-29T07:00:00;98459.81;;;-1.16;100.00
12759;BME280;20944;47.048;15.390;2023-01-29T07:02:29;98475.19;;;-1.17;100.00
12759;BME280;20944;47.048;15.390;2023-01-29T07:04:59;98464.75;;;-1.22;100.00
12759;BME280;20944;47.048;15.390;2023-01-29T07:07:28;98413.44;;;-1.46;100.00
12759;BME280;20944;47.048;15.390;2023-01-29T07:09:56;98440.41;;;-1.33;100.00
12759;BME280;20944;47.048;15.390;2023-01-29T07:12:25;98461.72;;;-1.10;100.00
12759;BME280;20944;47.048;15.390;2023-01-29T07:14:54;98456.81;;;-1.02;100.00
12759;BME280;20944;47.048;15.390;2023-01-29T07:17:23;98347.03;;;-1.60;100.00
12759;BME280;20944;47.048;15.390;2023-01-29T07:19:51;98441.53;;;-0.98;100.00
12759;BME280;20944;47.048;15.390;2023-01-29T07:22:22;98437.63;;;-0.85;100.00
12759;BME280;20944;47.048;15.390;2023-01-29T07:24:50;98430.91;;;-0.80;100.00
12759;BME280;20944;47.048;15.390;2023-01-29T07:27:19;98311.22;;;-1.56;100.00
12759;BME280;20944;47.048;15.390;2023-01-29T07:29:48;98349.00;;;-1.25;100.00
12759;BME280;20944;47.048;15.390;2023-01-29T07:32:16;98394.72;;;-0.86;100.00
12759;BME280;20944;47.048;15.390;2023-01-29T07:34:45;98426.53;;;-0.54;100.00
12759;BME280;20944;47.048;15.390;2023-01-29T07:37:14;98405.72;;;-0.62;100.00
12759;BME280;20944;47.048;15.390;2023-01-29T07:39:44;98409.63;;;-0.44;100.00
12759;BME280;20944;47.048;15.390;2023-01-29T07:42:13;98426.38;;;-0.29;100.00
12759;BME280;20944;47.048;15.390;2023-01-29T07:44:42;98455.22;;;-0.40;100.00
12759;BME280;20944;47.048;15.390;2023-01-29T07:47:11;98431.16;;;-0.12;100.00
12759;BME280;20944;47.048;15.390;2023-01-29T07:49:42;98423.69;;;-0.02;100.00
12759;BME280;20944;47.048;15.390;2023-01-29T07:52:10;98432.38;;;0.02;100.00
12759;BME280;20944;47.048;15.390;2023-01-29T07:54:39;98416.38;;;0.14;100.00
12759;BME280;20944;47.048;15.390;2023-01-29T07:57:09;98423.47;;;0.22;100.00
12759;BME280;20944;47.048;15.390;2023-01-29T07:59:37;98419.31;;;0.28;100.00
12759;BME280;20944;47.048;15.390;2023-01-29T08:02:07;98415.06;;;0.31;100.00
12759;BME280;20944;47.048;15.390;2023-01-29T08:04:36;98397.09;;;0.33;100.00
12759;BME280;20944;47.048;15.390;2023-01-29T08:07:05;98413.63;;;0.41;100.00
12759;BME280;20944;47.048;15.390;2023-01-29T08:09:35;98391.97;;;0.34;100.00
12759;BME280;20944;47.048;15.390;2023-01-29T08:12:04;98415.66;;;0.54;100.00
12759;BME280;20944;47.048;15.390;2023-01-29T08:14:34;98381.84;;;0.42;100.00
12759;BME280;20944;47.048;15.390;2023-01-29T08:17:03;98421.84;;;0.61;100.00
12759;BME280;20944;47.048;15.390;2023-01-29T08:19:32;98416.84;;;0.68;100.00
12759;BME280;20944;47.048;15.390;2023-01-29T08:22:00;98413.78;;;0.83;100.00
12759;BME280;20944;47.048;15.390;2023-01-29T08:24:29;98418.28;;;0.92;100.00
12759;BME280;20944;47.048;15.390;2023-01-29T08:27:18;98416.78;;;1.01;100.00
12759;BME280;20944;47.048;15.390;2023-01-29T08:29:48;98424.69;;;1.09;100.00
12759;BME280;20944;47.048;15.390;2023-01-29T08:32:16;98403.03;;;1.02;100.00
12759;BME280;20944;47.048;15.390;2023-01-29T08:34:45;98418.84;;;1.18;100.00
12759;BME280;20944;47.048;15.390;2023-01-29T08:37:14;98425.84;;;1.22;100.00
12759;BME280;20944;47.048;15.390;2023-01-29T08:39:43;98422.53;;;1.29;100.00
12759;BME280;20944;47.048;15.390;2023-01-29T08:42:12;98399.88;;;1.16;100.00
12759;BME280;20944;47.048;15.390;2023-01-29T08:44:40;98409.50;;;1.23;100.00
12759;BME280;20944;47.048;15.390;2023-01-29T08:47:11;98426.50;;;1.52;100.00
12759;BME280;20944;47.048;15.390;2023-01-29T08:49:39;98432.63;;;1.57;100.00
12759;BME280;20944;47.048;15.390;2023-01-29T08:52:08;98435.44;;;1.70;100.00
12759;BME280;20944;47.048;15.390;2023-01-29T08:54:37;98437.25;;;1.74;100.00
12759;BME280;20944;47.048;15.390;2023-01-29T08:57:05;98437.44;;;1.83;100.00
12759;BME280;20944;47.048;15.390;2023-01-29T08:59:34;98427.22;;;1.89;100.00
12759;BME280;20944;47.048;15.390;2023-01-29T09:02:03;98443.16;;;2.12;100.00
12759;BME280;20944;47.048;15.390;2023-01-29T09:04:33;98441.63;;;2.22;100.00
12759;BME280;20944;47.048;15.390;2023-01-29T09:07:01;98452.09;;;2.28;100.00
12759;BME280;20944;47.048;15.390;2023-01-29T09:09:30;98392.00;;;1.94;100.00
12759;BME280;20944;47.048;15.390;2023-01-29T09:11:59;98362.53;;;1.83;100.00
12759;BME280;20944;47.048;15.390;2023-01-29T09:14:27;98453.34;;;2.51;100.00
12759;BME280;20944;47.048;15.390;2023-01-29T09:16:56;98450.72;;;2.50;100.00
12759;BME280;20944;47.048;15.390;2023-01-29T09:19:25;98455.88;;;2.48;100.00
12759;BME280;20944;47.048;15.390;2023-01-29T09:21:55;98461.66;;;2.33;100.00
12759;BME280;20944;47.048;15.390;2023-01-29T09:24:23;98436.34;;;2.15;100.00
12759;BME280;20944;47.048;15.390;2023-01-29T09:26:52;98458.34;;;2.40;100.00
12759;BME280;20944;47.048;15.390;2023-01-29T09:29:21;98463.22;;;2.74;100.00
12759;BME280;20944;47.048;15.390;2023-01-29T09:31:49;98462.03;;;3.08;100.00
12759;BME280;20944;47.048;15.390;2023-01-29T09:34:18;98419.66;;;3.01;100.00
12759;BME280;20944;47.048;15.390;2023-01-29T09:36:47;98440.03;;;3.39;100.00
12759;BME280;20944;47.048;15.390;2023-01-29T09:39:17;98445.44;;;3.56;100.00
12759;BME280;20944;47.048;15.390;2023-01-29T09:41:52;98466.53;;;3.83;100.00
12759;BME280;20944;47.048;15.390;2023-01-29T09:44:32;98463.91;;;3.80;100.00
12759;BME280;20944;47.048;15.390;2023-01-29T09:47:03;98461.09;;;3.63;100.00
12759;BME280;20944;47.048;15.390;2023-01-29T09:49:38;98441.53;;;3.21;100.00
12759;BME280;20944;47.048;15.390;2023-01-29T09:52:13;98430.75;;;2.94;100.00
12759;BME280;20944;47.048;15.390;2023-01-29T09:54:52;98466.03;;;2.87;100.00
12759;BME280;20944;47.048;15.390;2023-01-29T09:57:24;98471.97;;;2.32;100.00
12759;BME280;20944;47.048;15.390;2023-01-29T09:59:55;98341.00;;;1.84;100.00
12759;BME280;20944;47.048;15.390;2023-01-29T10:05:45;98456.56;;;2.38;100.00
12759;BME280;20944;47.048;15.390;2023-01-29T10:11:17;98435.31;;;2.07;100.00
12759;BME280;20944;47.048;15.390;2023-01-29T10:13:58;98467.28;;;2.12;100.00
12759;BME280;20944;47.048;15.390;2023-01-29T10:16:41;98459.72;;;2.20;100.00
12759;BME280;20944;47.048;15.390;2023-01-29T10:19:31;98426.00;;;2.15;100.00
12759;BME280;20944;47.048;15.390;2023-01-29T10:22:20;98421.13;;;2.32;100.00
12759;BME280;20944;47.048;15.390;2023-01-29T10:24:57;98444.81;;;2.57;100.00
12759;BME280;20944;47.048;15.390;2023-01-29T10:27:32;98419.78;;;2.54;100.00
12759;BME280;20944;47.048;15.390;2023-01-29T10:30:03;98455.38;;;2.69;100.00
12759;BME280;20944;47.048;15.390;2023-01-29T10:32:36;98415.69;;;2.67;100.00
12759;BME280;20944;47.048;15.390;2023-01-29T10:35:21;98426.97;;;2.70;100.00
12759;BME280;20944;47.048;15.390;2023-01-29T10:37:52;98397.16;;;2.41;100.00
12759;BME280;20944;47.048;15.390;2023-01-29T10:40:23;98411.06;;;2.49;100.00
12759;BME280;20944;47.048;15.390;2023-01-29T10:43:00;98423.25;;;2.55;100.00
12759;BME280;20944;47.048;15.390;2023-01-29T10:45:35;98430.13;;;2.54;100.00
12759;BME280;20944;47.048;15.390;2023-01-29T10:54:18;98425.72;;;2.49;100.00
12759;BME280;20944;47.048;15.390;2023-01-29T10:56:57;98434.47;;;2.57;100.00
12759;BME280;20944;47.048;15.390;2023-01-29T10:59:40;98425.19;;;2.69;100.00
12759;BME280;20944;47.048;15.390;2023-01-29T11:02:14;98418.47;;;2.79;100.00
12759;BME280;20944;47.048;15.390;2023-01-29T11:04:44;98415.09;;;2.85;100.00
12759;BME280;20944;47.048;15.390;2023-01-29T11:07:15;98397.75;;;2.78;100.00
12759;BME280;20944;47.048;15.390;2023-01-29T11:09:50;98410.06;;;2.94;100.00
12759;BME280;20944;47.048;15.390;2023-01-29T11:12:22;98403.28;;;3.02;100.00
12759;BME280;20944;47.048;15.390;2023-01-29T11:15:00;98404.34;;;3.15;100.00
12759;BME280;20944;47.048;15.390;2023-01-29T11:17:31;98297.44;;;2.60;100.00
12759;BME280;20944;47.048;15.390;2023-01-29T11:20:00;98401.03;;;3.27;100.00
12759;BME280;20944;47.048;15.390;2023-01-29T11:22:29;98401.78;;;3.18;100.00
12759;BME280;20944;47.048;15.390;2023-01-29T11:25:16;98387.78;;;3.05;100.00
12759;BME280;20944;47.048;15.390;2023-01-29T11:27:46;98404.34;;;3.15;100.00
12759;BME280;20944;47.048;15.390;2023-01-29T11:30:22;98402.44;;;3.05;100.00
12759;BME280;20944;47.048;15.390;2023-01-29T11:33:02;98396.13;;;2.86;100.00
12759;BME280;20944;47.048;15.390;2023-01-29T11:35:34;98388.25;;;2.77;100.00
12759;BME280;20944;47.048;15.390;2023-01-29T11:38:12;98265.63;;;2.09;100.00
12759;BME280;20944;47.048;15.390;2023-01-29T11:40:46;98377.03;;;2.78;100.00
12759;BME280;20944;47.048;15.390;2023-01-29T11:43:27;98317.94;;;2.46;100.00
12759;BME280;20944;47.048;15.390;2023-01-29T11:45:59;98336.94;;;2.50;100.00
12759;BME280;20944;47.048;15.390;2023-01-29T11:48:39;98372.44;;;2.60;100.00
12759;BME280;20944;47.048;15.390;2023-01-29T11:51:10;98335.84;;;2.34;100.00
12759;BME280;20944;47.048;15.390;2023-01-29T11:53:42;98331.44;;;2.30;100.00
12759;BME280;20944;47.048;15.390;2023-01-29T11:56:19;98290.50;;;2.01;100.00
12759;BME280;20944;47.048;15.390;2023-01-29T11:58:49;98347.63;;;2.18;100.00
12759;BME280;20944;47.048;15.390;2023-01-29T12:01:29;98320.44;;;1.90;100.00
12759;BME280;20944;47.048;15.390;2023-01-29T12:03:59;98344.59;;;1.94;100.00
12759;BME280;20944;47.048;15.390;2023-01-29T12:06:33;98341.13;;;1.90;100.00
12759;BME280;20944;47.048;15.390;2023-01-29T12:09:10;98335.94;;;1.90;100.00
12759;BME280;20944;47.048;15.390;2023-01-29T12:11:43;98341.13;;;1.92;100.00
12759;BME280;20944;47.048;15.390;2023-01-29T12:14:27;98345.41;;;1.89;100.00
12759;BME280;20944;47.048;15.390;2023-01-29T12:17:01;98341.88;;;1.84;100.00
12759;BME280;20944;47.048;15.390;2023-01-29T12:19:37;98345.41;;;1.89;100.00
12759;BME280;20944;47.048;15.390;2023-01-29T12:22:13;98345.56;;;1.97;100.00
12759;BME280;20944;47.048;15.390;2023-01-29T12:24:48;98349.13;;;2.05;100.00
12759;BME280;20944;47.048;15.390;2023-01-29T12:27:26;98319.72;;;1.99;100.00
12759;BME280;20944;47.048;15.390;2023-01-29T12:30:01;98330.25;;;2.09;100.00
12759;BME280;20944;47.048;15.390;2023-01-29T12:32:40;98340.50;;;2.05;100.00
12759;BME280;20944;47.048;15.390;2023-01-29T12:35:17;98317.34;;;2.09;100.00
12759;BME280;20944;47.048;15.390;2023-01-29T12:37:52;98308.66;;;2.07;100.00
12759;BME280;20944;47.048;15.390;2023-01-29T12:40:25;98184.50;;;0.98;100.00
12759;BME280;20944;47.048;15.390;2023-01-29T12:43:00;98323.38;;;2.10;100.00
12759;BME280;20944;47.048;15.390;2023-01-29T12:45:31;98307.63;;;1.96;100.00
12759;BME280;20944;47.048;15.390;2023-01-29T12:48:06;98323.28;;;2.05;100.00
12759;BME280;20944;47.048;15.390;2023-01-29T12:50:36;98317.34;;;2.09;100.00
12759;BME280;20944;47.048;15.390;2023-01-29T12:53:14;98307.69;;;2.01;100.00
12759;BME280;20944;47.048;15.390;2023-01-29T12:55:50;98308.31;;;1.86;100.00
12759;BME280;20944;47.048;15.390;2023-01-29T12:58:24;98303.81;;;1.76;100.00
12759;BME280;20944;47.048;15.390;2023-01-29T13:01:02;98305.50;;;1.72;100.00
12759;BME280;20944;47.048;15.390;2023-01-29T13:03:44;98304.50;;;1.66;100.00
12759;BME280;20944;47.048;15.390;2023-01-29T13:06:16;98290.53;;;1.54;100.00
12759;BME280;20944;47.048;15.390;2023-01-29T13:08:48;98264.38;;;1.38;100.00
12759;BME280;20944;47.048;15.390;2023-01-29T13:11:21;98272.22;;;1.42;100.00
12759;BME280;20944;47.048;15.390;2023-01-29T13:13:53;98270.56;;;1.46;100.00
12759;BME280;20944;47.048;15.390;2023-01-29T13:16:26;98267.94;;;1.44;100.00
12759;BME280;20944;47.048;15.390;2023-01-29T13:18:59;98273.16;;;1.46;100.00
12759;BME280;20944;47.048;15.390;2023-01-29T13:21:36;98259.44;;;1.48;100.00
12759;BME280;20944;47.048;15.390;2023-01-29T13:24:12;98285.44;;;1.57;100.00
12759;BME280;20944;47.048;15.390;2023-01-29T13:26:44;98276.84;;;1.58;100.00
12759;BME280;20944;47.048;15.390;2023-01-29T13:29:21;98140.31;;;0.81;100.00
12759;BME280;20944;47.048;15.390;2023-01-29T13:31:51;98274.28;;;1.60;100.00
12759;BME280;20944;47.048;15.390;2023-01-29T13:34:25;98249.81;;;1.40;100.00